createdAt,value
2023-05-08T00:00:13.421Z,3.70
2023-05-08T00:01:13.174Z,4.20
2023-05-08T00:02:13.261Z,5.30
2023-05-08T00:03:13.314Z,4.20
2023-05-08T00:04:13.337Z,4.80
2023-05-08T00:05:13.202Z,4.50
2023-05-08T00:06:13.210Z,4.50
2023-05-08T00:07:13.224Z,4.00
2023-05-08T00:08:13.239Z,3.90
2023-05-08T00:09:13.248Z,3.90
2023-05-08T00:10:13.544Z,4.50
2023-05-08T00:11:13.268Z,5.00
2023-05-08T00:12:13.288Z,4.90
2023-05-08T00:13:13.298Z,4.00
2023-05-08T00:14:13.300Z,4.00
2023-05-08T00:15:13.334Z,4.50
2023-05-08T00:16:13.349Z,4.90
2023-05-08T00:17:13.330Z,4.40
2023-05-08T00:18:13.359Z,4.20
2023-05-08T00:19:13.354Z,3.80
2023-05-08T00:20:13.529Z,3.90
2023-05-08T00:21:13.374Z,4.10
2023-05-08T00:22:13.388Z,3.80
2023-05-08T00:23:13.407Z,5.10
2023-05-08T00:24:13.410Z,3.90
2023-05-08T00:25:13.417Z,4.00
2023-05-08T00:26:13.443Z,4.00
2023-05-08T00:27:13.439Z,3.90
2023-05-08T00:28:13.453Z,4.70
2023-05-08T00:29:13.465Z,3.90
2023-05-08T00:30:13.700Z,3.90
2023-05-08T00:31:13.506Z,3.80
2023-05-08T00:32:13.559Z,4.20
2023-05-08T00:33:13.554Z,5.30
2023-05-08T00:34:13.520Z,4.00
2023-05-08T00:35:13.526Z,3.80
2023-05-08T00:36:13.549Z,3.80
2023-05-08T00:37:13.563Z,3.80
2023-05-08T00:38:13.579Z,3.70
2023-05-08T00:39:13.568Z,3.80
2023-05-08T00:40:13.786Z,3.90
2023-05-08T00:41:13.594Z,3.80
2023-05-08T00:42:13.614Z,3.90
2023-05-08T00:43:13.612Z,3.80
2023-05-08T00:44:13.627Z,4.30
2023-05-08T00:45:13.634Z,4.00
2023-05-08T00:46:13.665Z,4.00
2023-05-08T00:47:13.681Z,5.40
2023-05-08T00:48:13.679Z,4.20
2023-05-08T00:49:13.677Z,4.30
2023-05-08T00:50:13.914Z,3.90
2023-05-08T00:51:13.700Z,4.20
2023-05-08T00:52:13.719Z,4.40
2023-05-08T00:53:13.722Z,4.20
2023-05-08T00:54:13.740Z,4.10
2023-05-08T00:55:13.745Z,4.00
2023-05-08T00:56:13.761Z,4.30
2023-05-08T00:57:13.766Z,4.30
2023-05-08T00:58:13.795Z,5.10
2023-05-08T00:59:13.789Z,5.60
2023-05-08T01:00:13.927Z,5.30
2023-05-08T01:01:13.812Z,7.80
2023-05-08T01:02:13.855Z,4.80
2023-05-08T01:03:13.897Z,5.00
2023-05-08T01:04:13.844Z,4.70
2023-05-08T01:05:13.859Z,4.00
2023-05-08T01:06:13.868Z,4.30
2023-05-08T01:07:13.873Z,4.10
2023-05-08T01:08:13.891Z,4.10
2023-05-08T01:09:13.898Z,4.10
2023-05-08T01:10:14.198Z,3.80
2023-05-08T01:11:13.932Z,4.00
2023-05-08T01:12:13.935Z,4.20
2023-05-08T01:13:13.987Z,4.00
2023-05-08T01:14:13.955Z,4.00
2023-05-08T01:15:13.973Z,3.90
2023-05-08T01:16:14.108Z,3.90
2023-05-08T01:17:13.999Z,4.10
2023-05-08T01:18:14.002Z,4.50
2023-05-08T01:19:14.033Z,4.30
2023-05-08T01:20:14.168Z,5.30
2023-05-08T01:21:14.031Z,5.20
2023-05-08T01:22:14.053Z,4.30
2023-05-08T01:23:14.052Z,142.80
2023-05-08T01:24:14.072Z,248.50
2023-05-08T01:25:14.075Z,306.40
2023-05-08T01:26:14.127Z,175.20
2023-05-08T01:27:14.096Z,13.50
2023-05-08T01:28:14.129Z,33.20
2023-05-08T01:29:14.121Z,16.70
2023-05-08T01:30:14.363Z,5.50
2023-05-08T01:31:14.139Z,5.00
2023-05-08T01:32:14.155Z,5.20
2023-05-08T01:33:14.270Z,5.40
2023-05-08T01:34:14.178Z,4.10
2023-05-08T01:35:14.200Z,5.50
2023-05-08T01:36:14.198Z,4.00
2023-05-08T01:37:14.220Z,4.70
2023-05-08T01:38:14.220Z,4.50
2023-05-08T01:39:14.242Z,4.00
2023-05-08T01:40:14.589Z,4.50
2023-05-08T01:41:14.255Z,4.30
2023-05-08T01:42:14.262Z,4.80
2023-05-08T01:43:14.282Z,4.30
2023-05-08T01:44:14.306Z,7.60
2023-05-08T01:45:14.290Z,4.70
2023-05-08T01:46:14.339Z,4.30
2023-05-08T01:47:14.314Z,4.30
2023-05-08T01:48:14.322Z,4.20
2023-05-08T01:49:14.337Z,4.50
2023-05-08T01:50:14.640Z,4.80
2023-05-08T01:51:14.379Z,4.70
2023-05-08T01:52:14.364Z,4.40
2023-05-08T01:53:14.383Z,5.20
2023-05-08T01:54:14.390Z,4.40
2023-05-08T01:55:14.416Z,4.80
2023-05-08T01:56:14.418Z,4.00
2023-05-08T01:57:14.423Z,4.00
2023-05-08T01:58:14.433Z,5.40
2023-05-08T01:59:14.450Z,5.50
2023-05-08T02:00:14.736Z,4.50
2023-05-08T02:01:14.538Z,4.10
2023-05-08T02:02:14.517Z,4.00
2023-05-08T02:03:14.508Z,3.90
2023-05-08T02:04:14.538Z,4.10
2023-05-08T02:05:14.515Z,3.90
2023-05-08T02:06:14.517Z,4.80
2023-05-08T02:07:14.549Z,4.00
2023-05-08T02:08:14.539Z,5.70
2023-05-08T02:09:14.550Z,5.30
2023-05-08T02:10:14.812Z,3.90
2023-05-08T02:11:14.577Z,3.80
2023-05-08T02:12:14.579Z,3.90
2023-05-08T02:13:14.637Z,4.40
2023-05-08T02:14:14.606Z,4.20
2023-05-08T02:15:14.607Z,4.00
2023-05-08T02:16:14.696Z,5.00
2023-05-08T02:17:14.637Z,4.00
2023-05-08T02:18:14.651Z,4.00
2023-05-08T02:19:14.662Z,4.30
2023-05-08T02:20:14.865Z,3.90
2023-05-08T02:21:14.673Z,6.00
2023-05-08T02:22:14.684Z,3.90
2023-05-08T02:23:14.731Z,4.80
2023-05-08T02:24:14.732Z,25.10
2023-05-08T02:25:14.801Z,34.40
2023-05-08T02:26:14.730Z,4.40
2023-05-08T02:27:14.739Z,4.20
2023-05-08T02:28:14.761Z,4.80
2023-05-08T02:29:14.770Z,5.00
2023-05-08T02:30:15.015Z,4.50
2023-05-08T02:31:14.787Z,4.00
2023-05-08T02:32:14.903Z,5.00
2023-05-08T02:33:14.853Z,4.50
2023-05-08T02:34:14.812Z,4.30
2023-05-08T02:35:14.841Z,4.30
2023-05-08T02:36:14.833Z,4.20
2023-05-08T02:37:14.851Z,4.60
2023-05-08T02:38:14.867Z,5.20
2023-05-08T02:39:14.901Z,4.10
2023-05-08T02:40:15.161Z,4.40
2023-05-08T02:41:14.891Z,5.00
2023-05-08T02:42:14.897Z,4.20
2023-05-08T02:43:14.923Z,4.30
2023-05-08T02:44:14.948Z,4.50
2023-05-08T02:45:14.936Z,4.60
2023-05-08T02:46:14.966Z,4.10
2023-05-08T02:47:14.958Z,5.00
2023-05-08T02:48:14.963Z,4.60
2023-05-08T02:49:15.011Z,4.90
2023-05-08T02:50:14.981Z,5.00
2023-05-08T02:51:14.999Z,4.50
2023-05-08T02:52:15.005Z,4.50
2023-05-08T02:53:15.016Z,4.30
2023-05-08T02:54:15.023Z,4.20
2023-05-08T02:55:15.054Z,4.20
2023-05-08T02:56:15.038Z,4.10
2023-05-08T02:57:15.057Z,4.20
2023-05-08T02:58:15.070Z,4.20
2023-05-08T02:59:15.074Z,4.40
2023-05-08T03:00:15.107Z,5.10
2023-05-08T03:01:15.123Z,6.50
2023-05-08T03:02:15.139Z,6.80
2023-05-08T03:03:15.364Z,5.80
2023-05-08T03:04:15.125Z,6.30
2023-05-08T03:05:15.134Z,7.20
2023-05-08T03:06:15.147Z,6.10
2023-05-08T03:07:15.156Z,5.50
2023-05-08T03:08:15.164Z,5.60
2023-05-08T03:09:15.178Z,4.70
2023-05-08T03:10:15.307Z,6.60
2023-05-08T03:11:15.216Z,10.00
2023-05-08T03:12:15.207Z,8.50
2023-05-08T03:13:15.241Z,96.00
2023-05-08T03:14:15.224Z,73.20
2023-05-08T03:15:15.238Z,107.50
2023-05-08T03:16:15.312Z,144.20
2023-05-08T03:17:15.261Z,341.90
2023-05-08T03:18:15.272Z,216.20
2023-05-08T03:19:15.289Z,273.80
2023-05-08T03:20:15.374Z,565.10
2023-05-08T03:21:15.300Z,353.80
2023-05-08T03:22:15.307Z,338.10
2023-05-08T03:23:15.332Z,429.00
2023-05-08T03:24:15.323Z,164.70
2023-05-08T03:25:15.336Z,16.70
2023-05-08T03:26:15.347Z,6.80
2023-05-08T03:27:15.380Z,7.10
2023-05-08T03:28:15.363Z,7.20
2023-05-08T03:29:15.418Z,5.70
2023-05-08T03:30:15.633Z,6.20
2023-05-08T03:31:15.450Z,8.30
2023-05-08T03:32:15.411Z,5.80
2023-05-08T03:33:15.418Z,6.50
2023-05-08T03:34:15.422Z,31.90
2023-05-08T03:35:15.440Z,11.40
2023-05-08T03:36:15.442Z,6.90
2023-05-08T03:37:15.454Z,14.10
2023-05-08T03:38:15.471Z,212.20
2023-05-08T03:39:15.482Z,351.30
2023-05-08T03:40:15.507Z,240.90
2023-05-08T03:41:15.496Z,154.60
2023-05-08T03:42:15.500Z,214.40
2023-05-08T03:43:15.665Z,178.60
2023-05-08T03:44:15.524Z,211.20
2023-05-08T03:45:15.537Z,8.10
2023-05-08T03:46:15.596Z,7.40
2023-05-08T03:47:15.553Z,52.30
2023-05-08T03:48:15.645Z,33.90
2023-05-08T03:49:15.578Z,44.10
2023-05-08T03:50:15.586Z,33.20
2023-05-08T03:51:15.595Z,37.80
2023-05-08T03:52:15.600Z,70.90
2023-05-08T03:53:15.631Z,73.60
2023-05-08T03:54:15.660Z,119.50
2023-05-08T03:55:15.666Z,140.60
2023-05-08T03:56:15.676Z,88.60
2023-05-08T03:57:15.680Z,13.20
2023-05-08T03:58:15.705Z,5.90
2023-05-08T03:59:15.727Z,5.60
2023-05-08T04:00:15.696Z,9.30
2023-05-08T04:01:15.700Z,11.90
2023-05-08T04:02:15.793Z,20.90
2023-05-08T04:03:15.790Z,42.30
2023-05-08T04:04:15.866Z,9.80
2023-05-08T04:05:15.741Z,42.90
2023-05-08T04:06:15.746Z,27.80
2023-05-08T04:07:15.764Z,24.80
2023-05-08T04:08:15.819Z,17.50
2023-05-08T04:09:15.787Z,9.90
2023-05-08T04:10:15.936Z,220.10
2023-05-08T04:11:15.819Z,49.40
2023-05-08T04:12:15.809Z,18.50
2023-05-08T04:13:15.854Z,15.70
2023-05-08T04:14:15.836Z,7.40
2023-05-08T04:15:16.058Z,11.40
2023-05-08T04:16:15.880Z,5.90
2023-05-08T04:17:15.885Z,5.50
2023-05-08T04:18:15.875Z,6.70
2023-05-08T04:19:15.897Z,5.60
2023-05-08T04:20:15.890Z,5.00
2023-05-08T04:21:15.905Z,4.70
2023-05-08T04:22:15.914Z,7.70
2023-05-08T04:23:15.931Z,9.40
2023-05-08T04:24:15.970Z,26.40
2023-05-08T04:25:16.052Z,10.60
2023-05-08T04:26:16.630Z,6.30
2023-05-08T04:27:15.980Z,5.30
2023-05-08T04:28:15.986Z,6.00
2023-05-08T04:29:16.001Z,6.30
2023-05-08T04:30:16.005Z,5.30
2023-05-08T04:31:16.063Z,4.70
2023-05-08T04:32:16.114Z,4.60
2023-05-08T04:33:16.058Z,4.60
2023-05-08T04:34:16.054Z,4.70
2023-05-08T04:35:16.146Z,4.30
2023-05-08T04:36:16.070Z,4.30
2023-05-08T04:37:16.075Z,4.30
2023-05-08T04:38:16.081Z,4.40
2023-05-08T04:39:16.096Z,4.40
2023-05-08T04:40:16.109Z,4.30
2023-05-08T04:41:16.197Z,4.40
2023-05-08T04:42:16.125Z,4.10
2023-05-08T04:43:16.179Z,5.70
2023-05-08T04:44:16.164Z,4.60
2023-05-08T04:45:16.161Z,4.20
2023-05-08T04:46:16.211Z,4.10
2023-05-08T04:47:16.221Z,5.80
2023-05-08T04:48:16.197Z,38.10
2023-05-08T04:49:16.201Z,82.20
2023-05-08T04:50:16.212Z,9.10
2023-05-08T04:51:16.227Z,7.40
2023-05-08T04:52:16.252Z,145.50
2023-05-08T04:53:16.245Z,55.60
2023-05-08T04:54:16.267Z,83.70
2023-05-08T04:55:16.272Z,89.40
2023-05-08T04:56:16.268Z,79.00
2023-05-08T04:57:16.285Z,257.20
2023-05-08T04:58:16.301Z,307.10
2023-05-08T04:59:16.339Z,230.30
2023-05-08T05:00:16.325Z,78.30
2023-05-08T05:01:16.361Z,44.40
2023-05-08T05:02:16.332Z,5.40
2023-05-08T05:03:16.434Z,5.10
2023-05-08T05:04:16.369Z,4.50
2023-05-08T05:05:16.362Z,4.40
2023-05-08T05:06:16.370Z,4.50
2023-05-08T05:07:16.383Z,5.10
2023-05-08T05:08:16.386Z,4.60
2023-05-08T05:09:16.412Z,4.30
2023-05-08T05:10:16.442Z,4.20
2023-05-08T05:11:16.429Z,4.40
2023-05-08T05:12:16.431Z,4.30
2023-05-08T05:13:16.482Z,4.30
2023-05-08T05:14:16.452Z,7.40
2023-05-08T05:15:16.468Z,7.50
2023-05-08T05:16:16.519Z,23.60
2023-05-08T05:17:16.485Z,44.90
2023-05-08T05:18:16.492Z,22.40
2023-05-08T05:19:16.524Z,60.90
2023-05-08T05:20:16.512Z,261.60
2023-05-08T05:21:16.524Z,175.80
2023-05-08T05:22:16.533Z,141.90
2023-05-08T05:23:16.549Z,507.80
2023-05-08T05:24:16.559Z,484.40
2023-05-08T05:25:16.569Z,421.70
2023-05-08T05:26:16.572Z,394.10
2023-05-08T05:27:16.589Z,155.70
2023-05-08T05:28:16.598Z,178.50
2023-05-08T05:29:16.615Z,233.20
2023-05-08T05:30:16.624Z,383.00
2023-05-08T05:31:16.669Z,480.90
2023-05-08T05:32:16.648Z,277.80
2023-05-08T05:33:16.660Z,413.70
2023-05-08T05:34:16.653Z,200.40
2023-05-08T05:35:16.761Z,525.10
2023-05-08T05:36:16.676Z,501.90
2023-05-08T05:37:16.720Z,517.50
2023-05-08T05:38:16.706Z,506.90
2023-05-08T05:39:16.719Z,576.90
2023-05-08T05:40:16.716Z,204.80
2023-05-08T05:41:16.740Z,90.40
2023-05-08T05:42:16.736Z,443.90
2023-05-08T05:43:16.750Z,470.00
2023-05-08T05:44:16.757Z,446.90
2023-05-08T05:45:16.800Z,343.50
2023-05-08T05:46:16.807Z,428.50
2023-05-08T05:47:16.898Z,403.70
2023-05-08T05:48:16.805Z,375.00
2023-05-08T05:49:16.821Z,203.50
2023-05-08T05:50:16.816Z,246.20
2023-05-08T05:51:16.858Z,160.00
2023-05-08T05:52:16.856Z,96.20
2023-05-08T05:53:16.860Z,92.80
2023-05-08T05:54:16.855Z,195.70
2023-05-08T05:55:16.881Z,38.90
2023-05-08T05:56:16.875Z,6.40
2023-05-08T05:57:16.911Z,5.50
2023-05-08T05:58:16.909Z,106.80
2023-05-08T05:59:16.912Z,132.70
2023-05-08T06:00:16.925Z,217.40
2023-05-08T06:01:16.950Z,222.90
2023-05-08T06:02:16.979Z,286.20
2023-05-08T06:03:17.010Z,283.20
2023-05-08T06:04:17.016Z,374.80
2023-05-08T06:05:16.969Z,310.40
2023-05-08T06:06:16.979Z,127.80
2023-05-08T06:07:17.010Z,182.90
2023-05-08T06:08:16.997Z,181.30
2023-05-08T06:09:17.013Z,86.70
2023-05-08T06:10:17.043Z,167.70
2023-05-08T06:11:17.031Z,219.20
2023-05-08T06:12:17.039Z,139.80
2023-05-08T06:13:17.068Z,135.40
2023-05-08T06:14:17.059Z,135.00
2023-05-08T06:15:17.087Z,108.90
2023-05-08T06:16:17.115Z,341.60
2023-05-08T06:17:17.135Z,424.70
2023-05-08T06:18:17.098Z,340.10
2023-05-08T06:19:17.112Z,368.60
2023-05-08T06:20:17.124Z,362.70
2023-05-08T06:21:17.132Z,357.90
2023-05-08T06:22:17.143Z,386.40
2023-05-08T06:23:17.176Z,288.50
2023-05-08T06:24:17.161Z,300.10
2023-05-08T06:25:17.177Z,341.50
2023-05-08T06:26:17.180Z,287.30
2023-05-08T06:27:17.204Z,137.10
2023-05-08T06:28:17.208Z,109.70
2023-05-08T06:29:17.219Z,228.50
2023-05-08T06:30:17.235Z,42.30
2023-05-08T06:31:17.275Z,376.00
2023-05-08T06:32:17.278Z,396.70
2023-05-08T06:33:17.264Z,406.10
2023-05-08T06:34:17.262Z,297.00
2023-05-08T06:35:17.278Z,388.80
2023-05-08T06:36:17.286Z,483.80
2023-05-08T06:37:17.299Z,400.10
2023-05-08T06:38:17.310Z,230.00
2023-05-08T06:39:17.333Z,187.30
2023-05-08T06:40:17.336Z,157.60
2023-05-08T06:41:17.359Z,256.70
2023-05-08T06:42:17.370Z,276.10
2023-05-08T06:43:17.407Z,290.70
2023-05-08T06:44:17.372Z,299.10
2023-05-08T06:45:17.384Z,360.40
2023-05-08T06:46:17.514Z,329.20
2023-05-08T06:47:17.397Z,303.70
2023-05-08T06:48:17.435Z,302.60
2023-05-08T06:49:17.416Z,262.60
2023-05-08T06:50:17.437Z,239.80
2023-05-08T06:51:17.436Z,219.60
2023-05-08T06:52:17.451Z,254.80
2023-05-08T06:53:17.456Z,314.60
2023-05-08T06:54:17.469Z,215.80
2023-05-08T06:55:17.513Z,161.50
2023-05-08T06:56:17.489Z,316.20
2023-05-08T06:57:17.500Z,243.30
2023-05-08T06:58:17.520Z,282.80
2023-05-08T06:59:17.543Z,281.40
2023-05-08T07:00:17.549Z,328.90
2023-05-08T07:01:17.620Z,305.90
2023-05-08T07:02:17.553Z,349.50
2023-05-08T07:03:17.577Z,236.70
2023-05-08T07:04:17.643Z,298.50
2023-05-08T07:05:17.990Z,326.50
2023-05-08T07:06:17.597Z,381.70
2023-05-08T07:07:17.601Z,410.70
2023-05-08T07:08:17.606Z,348.30
2023-05-08T07:09:17.617Z,398.20
2023-05-08T07:10:17.636Z,378.40
2023-05-08T07:11:17.685Z,444.10
2023-05-08T07:12:17.651Z,383.80
2023-05-08T07:13:17.716Z,392.60
2023-05-08T07:14:17.679Z,392.90
2023-05-08T07:15:25.517Z,495.50
2023-05-08T07:16:17.742Z,524.80
2023-05-08T07:17:17.696Z,459.20
2023-05-08T07:18:17.721Z,518.90
2023-05-08T07:19:17.714Z,446.10
2023-05-08T07:20:17.728Z,196.40
2023-05-08T07:21:17.742Z,474.00
2023-05-08T07:22:17.776Z,384.70
2023-05-08T07:23:17.756Z,313.20
2023-05-08T07:24:17.765Z,358.10
2023-05-08T07:25:17.772Z,248.50
2023-05-08T07:26:17.786Z,712.90
2023-05-08T07:27:17.816Z,649.50
2023-05-08T07:28:17.812Z,666.50
2023-05-08T07:29:17.812Z,429.30
2023-05-08T07:30:17.831Z,187.50
2023-05-08T07:31:17.878Z,142.80
2023-05-08T07:32:17.848Z,554.20
2023-05-08T07:33:17.852Z,404.00
2023-05-08T07:34:17.873Z,233.90
2023-05-08T07:35:17.905Z,228.70
2023-05-08T07:36:17.888Z,183.70
2023-05-08T07:37:17.890Z,29.60
2023-05-08T07:38:17.905Z,14.80
2023-05-08T07:39:17.910Z,84.70
2023-05-08T07:40:17.932Z,311.50
2023-05-08T07:41:18.028Z,660.90
2023-05-08T07:42:17.947Z,692.40
2023-05-08T07:43:18.133Z,765.30
2023-05-08T07:44:17.975Z,420.30
2023-05-08T07:45:17.972Z,764.40
2023-05-08T07:46:18.039Z,738.40
2023-05-08T07:47:17.996Z,315.10
2023-05-08T07:48:18.002Z,146.70
2023-05-08T07:49:18.021Z,152.90
2023-05-08T07:50:18.022Z,113.60
2023-05-08T07:51:18.052Z,71.60
2023-05-08T07:52:18.071Z,36.30
2023-05-08T07:53:18.051Z,57.40
2023-05-08T07:54:18.061Z,44.40
2023-05-08T07:55:18.084Z,50.20
2023-05-08T07:56:18.091Z,20.30
2023-05-08T07:57:18.097Z,169.30
2023-05-08T07:58:18.113Z,141.60
2023-05-08T07:59:18.165Z,408.70
2023-05-08T08:00:18.128Z,603.40
2023-05-08T08:01:18.325Z,671.60
2023-05-08T08:02:18.183Z,324.60
2023-05-08T08:03:18.255Z,174.70
2023-05-08T08:04:18.171Z,206.30
2023-05-08T08:05:18.176Z,409.60
2023-05-08T08:06:18.189Z,443.50
2023-05-08T08:07:18.192Z,345.10
2023-05-08T08:08:18.210Z,95.60
2023-05-08T08:09:18.214Z,135.50
2023-05-08T08:10:18.257Z,81.20
2023-05-08T08:11:18.241Z,402.80
2023-05-08T08:12:18.250Z,181.10
2023-05-08T08:13:18.289Z,114.40
2023-05-08T08:14:18.284Z,103.10
2023-05-08T08:15:18.407Z,154.80
2023-05-08T08:16:18.321Z,112.50
2023-05-08T08:17:18.353Z,231.10
2023-05-08T08:18:18.364Z,153.70
2023-05-08T08:19:18.345Z,31.50
2023-05-08T08:20:18.340Z,5.10
2023-05-08T08:21:18.340Z,5.30
2023-05-08T08:22:18.358Z,5.10
2023-05-08T08:23:18.368Z,128.70
2023-05-08T08:24:18.376Z,51.40
2023-05-08T08:25:18.393Z,91.90
2023-05-08T08:26:18.413Z,4.90
2023-05-08T08:27:18.418Z,4.70
2023-05-08T08:28:18.423Z,5.50
2023-05-08T08:29:18.426Z,4.60
2023-05-08T08:30:18.947Z,4.50
2023-05-08T08:31:18.699Z,4.40
2023-05-08T08:32:18.460Z,4.50
2023-05-08T08:33:19.190Z,35.80
2023-05-08T08:34:18.491Z,190.30
2023-05-08T08:35:18.605Z,568.70
2023-05-08T08:36:18.519Z,83.60
2023-05-08T08:37:18.514Z,5.70
2023-05-08T08:38:18.533Z,4.90
2023-05-08T08:39:18.534Z,53.60
2023-05-08T08:40:18.550Z,69.10
2023-05-08T08:41:18.562Z,13.90
2023-05-08T08:42:18.576Z,18.00
2023-05-08T08:43:18.575Z,44.20
2023-05-08T08:44:18.598Z,118.40
2023-05-08T08:45:18.600Z,18.70
2023-05-08T08:46:18.618Z,12.80
2023-05-08T08:47:18.806Z,16.60
2023-05-08T08:48:18.636Z,12.60
2023-05-08T08:49:18.651Z,5.80
2023-05-08T08:50:18.659Z,6.30
2023-05-08T08:51:18.666Z,17.00
2023-05-08T08:52:18.683Z,4.30
2023-05-08T08:53:18.718Z,4.10
2023-05-08T08:54:18.702Z,4.30
2023-05-08T08:55:18.734Z,4.20
2023-05-08T08:56:18.719Z,3.90
2023-05-08T08:57:18.736Z,269.50
2023-05-08T08:58:18.745Z,278.80
2023-05-08T08:59:18.759Z,381.50
2023-05-08T09:00:18.769Z,501.40
2023-05-08T09:01:18.826Z,494.10
2023-05-08T09:02:18.865Z,138.10
2023-05-08T09:03:18.990Z,249.70
2023-05-08T09:04:18.931Z,22.40
2023-05-08T09:05:18.824Z,5.10
2023-05-08T09:06:18.840Z,4.30
2023-05-08T09:07:18.847Z,4.40
2023-05-08T09:08:18.869Z,4.30
2023-05-08T09:09:18.884Z,5.00
2023-05-08T09:10:18.882Z,4.10
2023-05-08T09:11:18.895Z,5.10
2023-05-08T09:12:18.925Z,4.80
2023-05-08T09:13:19.890Z,4.20
2023-05-08T09:14:18.927Z,96.80
2023-05-08T09:15:18.944Z,313.80
2023-05-08T09:16:19.006Z,76.00
2023-05-08T09:17:18.967Z,4.30
2023-05-08T09:18:18.975Z,5.80
2023-05-08T09:19:20.402Z,7.00
2023-05-08T09:20:19.000Z,5.20
2023-05-08T09:21:19.050Z,4.60
2023-05-08T09:22:19.019Z,4.50
2023-05-08T09:23:19.024Z,4.10
2023-05-08T09:24:19.039Z,6.20
2023-05-08T09:25:19.173Z,4.40
2023-05-08T09:26:19.075Z,3.90
2023-05-08T09:27:19.080Z,3.80
2023-05-08T09:28:19.105Z,4.10
2023-05-08T09:29:19.095Z,4.30
2023-05-08T09:30:19.227Z,5.50
2023-05-08T09:31:19.161Z,7.30
2023-05-08T09:32:19.134Z,4.60
2023-05-08T09:33:19.139Z,5.00
2023-05-08T09:34:19.166Z,4.50
2023-05-08T09:35:19.313Z,6.40
2023-05-08T09:36:19.179Z,4.10
2023-05-08T09:37:19.187Z,6.10
2023-05-08T09:38:19.204Z,4.70
2023-05-08T09:39:19.212Z,4.90
2023-05-08T09:40:19.244Z,10.30
2023-05-08T09:41:19.235Z,7.40
2023-05-08T09:42:19.248Z,4.40
2023-05-08T09:43:19.261Z,4.40
2023-05-08T09:44:19.274Z,4.20
2023-05-08T09:45:19.293Z,4.10
2023-05-08T09:46:19.542Z,3.80
2023-05-08T09:47:19.311Z,6.80
2023-05-08T09:48:19.327Z,4.40
2023-05-08T09:49:19.331Z,4.40
2023-05-08T09:50:19.412Z,5.50
2023-05-08T09:51:19.481Z,4.10
2023-05-08T09:52:19.385Z,4.40
2023-05-08T09:53:19.387Z,5.20
2023-05-08T09:54:19.409Z,4.50
2023-05-08T09:55:19.405Z,4.10
2023-05-08T09:56:19.432Z,4.60
2023-05-08T09:57:19.432Z,4.50
2023-05-08T09:58:19.453Z,4.40
2023-05-08T09:59:19.504Z,4.20
2023-05-08T10:00:19.491Z,5.10
2023-05-08T10:01:19.566Z,5.10
2023-05-08T10:02:19.512Z,4.00
2023-05-08T10:03:19.563Z,3.90
2023-05-08T10:04:19.525Z,5.00
2023-05-08T10:05:19.570Z,4.80
2023-05-08T10:06:19.564Z,4.00
2023-05-08T10:07:19.685Z,4.40
2023-05-08T10:08:19.569Z,4.00
2023-05-08T10:09:19.621Z,3.90
2023-05-08T10:10:19.610Z,3.90
2023-05-08T10:11:19.610Z,3.90
2023-05-08T10:12:19.629Z,3.80
2023-05-08T10:13:19.663Z,4.10
2023-05-08T10:14:19.653Z,4.00
2023-05-08T10:15:19.663Z,3.90
2023-05-08T10:16:19.723Z,5.50
2023-05-08T10:17:19.875Z,4.10
2023-05-08T10:18:19.698Z,3.90
2023-05-08T10:19:19.793Z,4.20
2023-05-08T10:20:21.373Z,3.80
2023-05-08T10:21:19.730Z,5.00
2023-05-08T10:22:19.765Z,4.20
2023-05-08T10:23:19.887Z,4.00
2023-05-08T10:24:19.773Z,3.80
2023-05-08T10:25:19.778Z,5.00
2023-05-08T10:26:19.794Z,4.10
2023-05-08T10:27:19.805Z,5.70
2023-05-08T10:28:19.830Z,3.80
2023-05-08T10:29:19.834Z,4.00
2023-05-08T10:30:19.849Z,4.40
2023-05-08T10:31:19.930Z,6.10
2023-05-08T10:32:19.863Z,3.90
2023-05-08T10:33:19.883Z,4.30
2023-05-08T10:34:19.888Z,6.30
2023-05-08T10:35:19.905Z,4.20
2023-05-08T10:36:19.917Z,6.10
2023-05-08T10:37:19.924Z,3.90
2023-05-08T10:38:19.941Z,3.70
2023-05-08T10:39:20.066Z,4.30
2023-05-08T10:40:19.968Z,3.70
2023-05-08T10:41:19.980Z,5.10
2023-05-08T10:42:19.999Z,4.00
2023-05-08T10:43:19.998Z,5.10
2023-05-08T10:44:20.015Z,3.90
2023-05-08T10:45:20.020Z,4.30
2023-05-08T10:46:20.102Z,3.90
2023-05-08T10:47:20.059Z,3.70
2023-05-08T10:48:20.064Z,3.80
2023-05-08T10:49:20.072Z,4.10
2023-05-08T10:50:20.101Z,3.90
2023-05-08T10:51:20.095Z,3.70
2023-05-08T10:52:20.111Z,3.70
2023-05-08T10:53:20.123Z,3.70
2023-05-08T10:54:20.132Z,3.80
2023-05-08T10:55:20.171Z,4.60
2023-05-08T10:56:20.158Z,4.30
2023-05-08T10:57:20.215Z,4.40
2023-05-08T10:58:20.180Z,4.10
2023-05-08T10:59:20.226Z,4.10
2023-05-08T11:00:20.208Z,4.00
2023-05-08T11:01:20.267Z,5.20
2023-05-08T11:02:20.232Z,4.80
2023-05-08T11:03:30.525Z,3.80
2023-05-08T11:04:20.327Z,4.70
2023-05-08T11:05:20.283Z,4.10
2023-05-08T11:06:20.293Z,3.90
2023-05-08T11:07:20.300Z,3.90
2023-05-08T11:08:20.305Z,4.00
2023-05-08T11:09:20.326Z,3.90
2023-05-08T11:10:20.357Z,4.30
2023-05-08T11:11:20.371Z,3.80
2023-05-08T11:12:20.360Z,5.10
2023-05-08T11:13:20.438Z,4.00
2023-05-08T11:14:20.384Z,4.60
2023-05-08T11:15:20.401Z,4.40
2023-05-08T11:16:20.480Z,4.00
2023-05-08T11:17:20.428Z,4.10
2023-05-08T11:18:20.436Z,4.70
2023-05-08T11:19:20.446Z,4.00
2023-05-08T11:20:20.460Z,5.00
2023-05-08T11:21:20.498Z,4.50
2023-05-08T11:22:20.487Z,5.20
2023-05-08T11:23:20.505Z,4.10
2023-05-08T11:24:20.512Z,4.00
2023-05-08T11:25:20.534Z,4.40
2023-05-08T11:26:20.542Z,4.60
2023-05-08T11:27:20.575Z,4.40
2023-05-08T11:28:20.569Z,4.00
2023-05-08T11:29:20.573Z,5.90
2023-05-08T11:30:20.589Z,4.60
2023-05-08T11:31:20.677Z,4.70
2023-05-08T11:32:20.656Z,4.80
2023-05-08T11:33:20.628Z,4.40
2023-05-08T11:34:20.642Z,3.90
2023-05-08T11:35:20.656Z,4.50
2023-05-08T11:36:20.690Z,4.00
2023-05-08T11:37:20.746Z,4.10
2023-05-08T11:38:20.688Z,5.40
2023-05-08T11:39:20.705Z,3.90
2023-05-08T11:40:20.718Z,5.40
2023-05-08T11:41:20.745Z,3.80
2023-05-08T11:42:20.736Z,3.80
2023-05-08T11:43:20.777Z,5.50
2023-05-08T11:44:20.823Z,3.80
2023-05-08T11:45:20.783Z,4.30
2023-05-08T11:46:20.831Z,4.20
2023-05-08T11:47:20.884Z,4.50
2023-05-08T11:48:20.831Z,4.90
2023-05-08T11:49:24.536Z,3.90
2023-05-08T11:50:20.841Z,4.70
2023-05-08T11:51:20.859Z,5.00
2023-05-08T11:52:20.870Z,4.60
2023-05-08T11:53:20.886Z,4.00
2023-05-08T11:54:20.896Z,4.40
2023-05-08T11:55:20.906Z,3.90
2023-05-08T11:56:20.918Z,3.90
2023-05-08T11:57:20.938Z,4.40
2023-05-08T11:58:20.948Z,5.60
2023-05-08T11:59:20.994Z,4.00
2023-05-08T12:00:21.065Z,4.20
2023-05-08T12:01:20.995Z,3.90
2023-05-08T12:02:21.074Z,3.80
2023-05-08T12:03:21.135Z,4.70
2023-05-08T12:04:21.277Z,4.20
2023-05-08T12:05:21.046Z,4.00
2023-05-08T12:06:21.055Z,4.30
2023-05-08T12:07:21.074Z,4.80
2023-05-08T12:08:21.093Z,4.20
2023-05-08T12:09:21.099Z,4.40
2023-05-08T12:10:21.108Z,3.90
2023-05-08T12:11:21.129Z,3.80
2023-05-08T12:12:21.133Z,3.80
2023-05-08T12:13:21.193Z,3.90
2023-05-08T12:14:21.162Z,4.90
2023-05-08T12:15:21.199Z,4.20
2023-05-08T12:16:21.220Z,4.50
2023-05-08T12:17:21.273Z,4.50
2023-05-08T12:18:21.216Z,4.00
2023-05-08T12:19:21.247Z,4.00
2023-05-08T12:20:21.243Z,5.20
2023-05-08T12:21:21.260Z,3.70
2023-05-08T12:22:21.271Z,4.50
2023-05-08T12:23:21.295Z,5.00
2023-05-08T12:24:21.304Z,4.80
2023-05-08T12:25:21.309Z,4.10
2023-05-08T12:26:21.322Z,4.60
2023-05-08T12:27:21.339Z,4.30
2023-05-08T12:28:21.349Z,4.60
2023-05-08T12:29:21.382Z,3.70
2023-05-08T12:30:21.376Z,6.20
2023-05-08T12:31:21.524Z,4.70
2023-05-08T12:32:21.409Z,3.80
2023-05-08T12:33:21.418Z,4.00
2023-05-08T12:34:21.429Z,4.10
2023-05-08T12:35:21.452Z,3.90
2023-05-08T12:36:21.458Z,4.10
2023-05-08T12:37:21.475Z,3.70
2023-05-08T12:38:21.484Z,4.40
2023-05-08T12:39:21.549Z,3.80
2023-05-08T12:40:21.521Z,5.50
2023-05-08T12:41:21.525Z,4.60
2023-05-08T12:42:21.551Z,5.20
2023-05-08T12:43:21.565Z,4.80
2023-05-08T12:44:21.563Z,5.40
2023-05-08T12:45:21.594Z,4.40
2023-05-08T12:46:21.633Z,4.10
2023-05-08T12:47:21.772Z,4.70
2023-05-08T12:48:21.632Z,3.70
2023-05-08T12:49:21.631Z,4.10
2023-05-08T12:50:21.640Z,4.00
2023-05-08T12:51:21.657Z,5.10
2023-05-08T12:52:21.670Z,4.40
2023-05-08T12:53:21.684Z,4.60
2023-05-08T12:54:21.693Z,4.40
2023-05-08T12:55:21.720Z,4.40
2023-05-08T12:56:21.728Z,3.80
2023-05-08T12:57:21.735Z,5.00
2023-05-08T12:58:21.755Z,3.90
2023-05-08T12:59:21.764Z,5.10
2023-05-08T13:00:21.770Z,4.20
2023-05-08T13:01:21.831Z,3.80
2023-05-08T13:02:22.163Z,4.10